createdAt,value
2023-03-27T00:00:46.826Z,98.03
2023-03-27T00:03:50.243Z,98.13
2023-03-27T00:06:55.171Z,98.19
2023-03-27T00:09:57.584Z,98.37
2023-03-27T00:13:05.538Z,98.48
2023-03-27T00:16:08.071Z,98.37
2023-03-27T00:19:10.037Z,98.27
2023-03-27T00:22:11.877Z,98.51
2023-03-27T00:25:25.047Z,98.54
2023-03-27T00:28:28.721Z,98.65
2023-03-27T00:31:30.831Z,98.80
2023-03-27T00:34:32.797Z,98.49
2023-03-27T00:37:43.017Z,98.49
2023-03-27T00:40:46.877Z,98.58
2023-03-27T00:43:54.209Z,98.78
2023-03-27T00:46:58.263Z,98.34
2023-03-27T00:50:05.934Z,98.89
2023-03-27T00:53:15.516Z,98.62
2023-03-27T00:56:18.071Z,98.93
2023-03-27T00:59:26.468Z,98.82
2023-03-27T01:02:30.953Z,99.13
2023-03-27T01:05:35.328Z,99.45
2023-03-27T01:08:38.090Z,99.04
2023-03-27T01:11:42.368Z,98.75
2023-03-27T01:14:44.205Z,98.58
2023-03-27T01:18:02.663Z,98.35
2023-03-27T01:21:18.502Z,98.03
2023-03-27T01:24:43.422Z,97.88
2023-03-27T01:28:04.054Z,97.72
2023-03-27T01:31:35.179Z,97.63
2023-03-27T01:35:01.751Z,97.68
2023-03-27T01:38:33.356Z,98.23
2023-03-27T01:41:47.580Z,97.86
2023-03-27T01:44:58.168Z,97.95
2023-03-27T01:48:22.561Z,97.92
2023-03-27T01:51:36.318Z,97.83
2023-03-27T01:54:55.866Z,97.52
2023-03-27T01:58:07.409Z,97.67
2023-03-27T02:01:18.185Z,97.75
2023-03-27T02:04:27.705Z,97.64
2023-03-27T02:07:37.527Z,97.76
2023-03-27T02:10:43.822Z,97.77
2023-03-27T02:14:04.213Z,97.61
2023-03-27T02:17:13.895Z,97.50
2023-03-27T02:20:16.457Z,97.49
2023-03-27T02:23:18.430Z,97.28
2023-03-27T02:26:23.351Z,97.21
2023-03-27T02:29:44.594Z,97.55
2023-03-27T02:32:58.887Z,97.36
2023-03-27T02:36:29.613Z,97.12
2023-03-27T02:39:38.294Z,97.04
2023-03-27T02:42:54.385Z,96.91
2023-03-27T02:46:14.843Z,96.58
2023-03-27T02:49:27.760Z,96.49
2023-03-27T02:52:37.044Z,96.31
2023-03-27T02:55:43.432Z,96.24
2023-03-27T02:59:00.257Z,96.17
2023-03-27T03:02:21.286Z,96.25
2023-03-27T03:05:30.440Z,96.07
2023-03-27T03:08:38.428Z,96.08
2023-03-27T03:11:50.411Z,96.05
2023-03-27T03:14:53.489Z,95.96
2023-03-27T03:17:55.480Z,95.78
2023-03-27T03:20:57.612Z,95.67
2023-03-27T03:24:00.217Z,95.49
2023-03-27T03:27:04.027Z,96.34
2023-03-27T03:30:09.905Z,96.62
2023-03-27T03:33:21.288Z,96.58
2023-03-27T03:36:24.005Z,96.87
2023-03-27T03:39:26.186Z,96.74
2023-03-27T03:42:29.553Z,96.67
2023-03-27T03:45:33.710Z,96.73
2023-03-27T03:48:35.614Z,96.65
2023-03-27T03:51:37.523Z,96.66
2023-03-27T03:54:40.461Z,97.09
2023-03-27T03:57:47.170Z,97.16
2023-03-27T04:00:54.729Z,97.29
2023-03-27T04:04:13.909Z,97.87
2023-03-27T04:07:41.342Z,97.74
2023-03-27T04:11:06.226Z,97.58
2023-03-27T04:14:33.394Z,97.92
2023-03-27T04:17:40.030Z,98.06
2023-03-27T04:20:49.766Z,98.08
2023-03-27T04:23:53.447Z,98.18
2023-03-27T04:27:07.041Z,98.10
2023-03-27T04:30:29.141Z,98.08
2023-03-27T04:33:52.540Z,97.79
2023-03-27T04:37:29.308Z,97.98
2023-03-27T04:41:02.083Z,97.88
2023-03-27T04:44:04.283Z,97.71
2023-03-27T04:47:08.835Z,97.67
2023-03-27T04:50:15.428Z,97.83
2023-03-27T04:53:20.619Z,97.70
2023-03-27T04:56:27.751Z,97.85
2023-03-27T04:59:32.025Z,97.99
2023-03-27T05:02:57.726Z,97.95
2023-03-27T05:06:10.228Z,98.90
2023-03-27T05:09:15.222Z,98.15
2023-03-27T05:12:21.037Z,97.82
2023-03-27T05:15:28.130Z,97.65
2023-03-27T05:18:31.335Z,97.90
2023-03-27T05:21:33.388Z,97.66
2023-03-27T05:24:37.951Z,97.98
2023-03-27T05:27:48.551Z,98.13
2023-03-27T05:30:55.046Z,97.63
2023-03-27T05:33:59.068Z,97.50
2023-03-27T05:37:05.897Z,97.23
2023-03-27T05:40:15.716Z,96.57
2023-03-27T05:43:17.962Z,96.61
2023-03-27T05:46:21.075Z,96.31
2023-03-27T05:49:42.917Z,96.34
2023-03-27T05:52:47.826Z,95.94
2023-03-27T05:55:49.725Z,95.72
2023-03-27T05:59:11.134Z,95.75
2023-03-27T06:02:20.584Z,95.56
2023-03-27T06:05:30.606Z,94.53
2023-03-27T06:08:32.565Z,94.27
2023-03-27T06:11:34.803Z,94.12
2023-03-27T06:14:37.112Z,93.84
2023-03-27T06:17:58.530Z,93.79
2023-03-27T06:21:05.739Z,93.33
2023-03-27T06:24:08.165Z,92.65
2023-03-27T06:27:10.969Z,93.01
2023-03-27T06:30:17.544Z,92.76
2023-03-27T06:33:33.262Z,92.70
2023-03-27T06:36:38.313Z,91.46
2023-03-27T06:39:40.315Z,90.62
2023-03-27T06:42:52.900Z,90.80
2023-03-27T06:46:03.302Z,90.27
2023-03-27T06:49:25.890Z,89.32
2023-03-27T06:52:30.243Z,88.46
2023-03-27T06:55:44.685Z,88.21
2023-03-27T06:58:52.586Z,87.51
2023-03-27T07:02:00.589Z,87.24
2023-03-27T07:05:31.103Z,85.92
2023-03-27T07:08:33.868Z,84.54
2023-03-27T07:11:37.585Z,83.58
2023-03-27T07:14:44.692Z,82.50
2023-03-27T07:17:58.330Z,82.71
2023-03-27T07:21:00.729Z,81.53
2023-03-27T07:24:02.771Z,80.87
2023-03-27T07:27:11.110Z,78.42
2023-03-27T07:30:14.400Z,77.42
2023-03-27T07:33:20.773Z,75.38
2023-03-27T07:36:23.215Z,74.71
2023-03-27T07:39:32.473Z,74.14
2023-03-27T07:42:35.642Z,73.39
2023-03-27T07:45:41.699Z,71.87
2023-03-27T07:48:46.714Z,70.19
2023-03-27T07:52:00.596Z,69.55
2023-03-27T07:55:14.318Z,69.52
2023-03-27T07:58:21.610Z,68.96
2023-03-27T08:01:26.117Z,67.26
2023-03-27T08:04:28.543Z,67.20
2023-03-27T08:07:48.609Z,65.91
2023-03-27T08:11:06.250Z,60.36
2023-03-27T08:14:13.259Z,63.37
2023-03-27T08:17:16.659Z,62.21
2023-03-27T08:20:23.034Z,62.25
2023-03-27T08:23:27.311Z,62.13
2023-03-27T08:26:52.365Z,60.33
2023-03-27T08:29:54.856Z,58.19
2023-03-27T08:32:58.112Z,57.88
2023-03-27T08:36:01.436Z,56.52
2023-03-27T08:39:05.960Z,57.93
2023-03-27T08:42:21.440Z,56.88
2023-03-27T08:45:30.149Z,56.26
2023-03-27T08:48:46.839Z,54.57
2023-03-27T08:52:06.365Z,56.64
2023-03-27T08:55:22.417Z,54.62
2023-03-27T08:58:38.164Z,55.82
2023-03-27T09:02:23.754Z,53.01
2023-03-27T09:05:40.923Z,55.71
2023-03-27T09:09:11.383Z,55.15
2023-03-27T09:12:40.111Z,52.34
2023-03-27T09:16:03.893Z,51.48
2023-03-27T09:19:48.694Z,52.23
2023-03-27T09:23:03.646Z,53.60
2023-03-27T09:26:35.971Z,52.98
2023-03-27T09:29:41.612Z,54.87
2023-03-27T09:33:08.518Z,54.99
2023-03-27T09:36:11.037Z,55.18
2023-03-27T09:39:17.813Z,54.06
2023-03-27T09:42:30.909Z,52.90
2023-03-27T09:45:39.195Z,53.04
2023-03-27T09:48:50.455Z,52.81
2023-03-27T09:51:56.779Z,53.07
2023-03-27T09:55:31.280Z,52.17
2023-03-27T09:58:45.506Z,50.03
2023-03-27T10:01:49.075Z,50.59
2023-03-27T10:05:22.395Z,51.70
2023-03-27T10:08:40.829Z,48.68
2023-03-27T10:11:50.975Z,49.51
2023-03-27T10:15:00.048Z,49.29
2023-03-27T10:18:07.454Z,50.69
2023-03-27T10:21:17.066Z,49.61
2023-03-27T10:24:34.525Z,49.97
2023-03-27T10:28:18.446Z,48.57
2023-03-27T10:31:52.813Z,50.10
2023-03-27T10:35:24.207Z,50.75
2023-03-27T10:38:52.973Z,49.83
2023-03-27T10:42:22.898Z,49.71
2023-03-27T10:45:31.112Z,48.01
2023-03-27T10:48:49.073Z,48.88
2023-03-27T10:52:17.097Z,46.91
2023-03-27T10:56:05.961Z,46.79
2023-03-27T10:59:25.486Z,47.67
2023-03-27T11:03:00.288Z,48.46
2023-03-27T11:06:08.240Z,46.94
2023-03-27T11:09:34.351Z,43.73
2023-03-27T11:12:54.108Z,40.16
2023-03-27T11:16:37.097Z,42.02
2023-03-27T11:20:07.577Z,40.87
2023-03-27T11:23:42.536Z,42.60
2023-03-27T11:27:23.460Z,42.02
2023-03-27T11:30:40.528Z,44.25
2023-03-27T11:33:57.212Z,43.98
2023-03-27T11:37:16.888Z,43.07
2023-03-27T11:40:24.668Z,44.07
2023-03-27T11:43:37.987Z,42.08
2023-03-27T11:46:45.636Z,43.02
2023-03-27T11:49:55.162Z,41.96
2023-03-27T11:53:23.532Z,43.46
2023-03-27T11:57:02.872Z,43.41
2023-03-27T12:00:36.470Z,43.43
2023-03-27T12:04:21.909Z,43.89
2023-03-27T12:07:57.776Z,45.09
2023-03-27T12:11:07.295Z,44.62
2023-03-27T12:14:41.160Z,43.93
2023-03-27T12:18:04.034Z,45.66
2023-03-27T12:21:20.654Z,44.38
2023-03-27T12:24:59.759Z,43.57
2023-03-27T12:28:40.091Z,43.72
2023-03-27T12:32:32.777Z,44.39
2023-03-27T12:36:03.078Z,44.81
2023-03-27T12:39:26.300Z,44.44
2023-03-27T12:42:54.650Z,44.22
2023-03-27T12:46:17.084Z,42.32
2023-03-27T12:49:22.060Z,41.90
2023-03-27T12:52:30.395Z,40.99
2023-03-27T12:56:16.595Z,40.55
2023-03-27T12:59:27.803Z,40.94
2023-03-27T13:02:42.228Z,41.80
2023-03-27T13:05:53.189Z,41.74
2023-03-27T13:09:13.689Z,42.17
2023-03-27T13:12:31.112Z,41.43
2023-03-27T13:16:02.504Z,40.48
2023-03-27T13:19:27.464Z,42.23
2023-03-27T13:22:39.596Z,41.00
2023-03-27T13:26:24.621Z,41.00
2023-03-27T13:29:34.054Z,40.89
2023-03-27T13:33:39.808Z,38.16
2023-03-27T13:36:50.414Z,40.09
2023-03-27T13:40:27.378Z,38.91
2023-03-27T13:43:43.316Z,40.12
2023-03-27T13:47:09.129Z,40.33
2023-03-27T13:50:23.680Z,39.73
2023-03-27T13:53:40.943Z,39.79
2023-03-27T13:57:11.748Z,40.78
2023-03-27T14:00:54.584Z,40.71
2023-03-27T14:04:21.237Z,40.40
2023-03-27T14:07:41.944Z,41.31
2023-03-27T14:11:07.781Z,41.15
2023-03-27T14:14:14.441Z,42.16
2023-03-27T14:17:32.634Z,41.69
2023-03-27T14:20:39.824Z,43.46
2023-03-27T14:23:50.756Z,42.00
2023-03-27T14:27:05.617Z,42.72
2023-03-27T14:30:14.601Z,43.38
2023-03-27T14:33:23.039Z,43.65
2023-03-27T14:36:34.140Z,43.95
2023-03-27T14:39:39.030Z,44.13
2023-03-27T14:42:53.980Z,43.92
2023-03-27T14:46:01.062Z,43.48
2023-03-27T14:49:07.532Z,44.06
2023-03-27T14:52:10.836Z,43.50
2023-03-27T14:55:36.955Z,43.14
2023-03-27T14:59:25.718Z,42.96
2023-03-27T15:02:39.403Z,43.36
2023-03-27T15:06:04.697Z,43.39
2023-03-27T15:09:19.404Z,44.09
2023-03-27T15:12:47.292Z,44.56
2023-03-27T15:15:50.715Z,44.71
2023-03-27T15:19:09.856Z,44.70
2023-03-27T15:22:35.341Z,45.18
2023-03-27T15:26:01.422Z,45.47
2023-03-27T15:29:14.049Z,45.44
2023-03-27T15:32:22.287Z,45.93
2023-03-27T15:35:38.246Z,47.08
2023-03-27T15:38:41.199Z,47.67
2023-03-27T15:41:44.073Z,49.77
2023-03-27T15:44:49.290Z,50.67
2023-03-27T15:48:02.994Z,50.92
2023-03-27T15:51:10.326Z,49.80
2023-03-27T15:54:27.635Z,50.64
2023-03-27T15:57:29.639Z,51.29
2023-03-27T16:00:31.676Z,51.86
2023-03-27T16:03:34.965Z,52.45
2023-03-27T16:06:47.633Z,54.44
2023-03-27T16:09:56.414Z,54.51
2023-03-27T16:13:02.987Z,53.99
2023-03-27T16:16:20.875Z,53.94
2023-03-27T16:19:22.717Z,54.05
2023-03-27T16:22:34.127Z,53.88
2023-03-27T16:25:36.393Z,53.69
2023-03-27T16:28:40.209Z,53.30
2023-03-27T16:31:42.118Z,53.25
2023-03-27T16:34:44.444Z,53.81
2023-03-27T16:37:46.468Z,53.89
2023-03-27T16:40:49.066Z,54.12
2023-03-27T16:43:53.366Z,54.59
2023-03-27T16:46:55.314Z,54.95
2023-03-27T16:50:10.236Z,54.41
2023-03-27T16:53:13.412Z,55.17
2023-03-27T16:56:17.325Z,55.68
2023-03-27T16:59:19.827Z,56.78
2023-03-27T17:02:26.795Z,57.25
2023-03-27T17:05:34.068Z,57.33
2023-03-27T17:08:37.290Z,57.62
2023-03-27T17:11:39.277Z,57.76
2023-03-27T17:14:43.496Z,57.64
2023-03-27T17:17:45.952Z,58.06
2023-03-27T17:20:47.842Z,58.39
2023-03-27T17:24:00.938Z,58.97
2023-03-27T17:27:03.130Z,59.01
2023-03-27T17:30:08.577Z,58.96
2023-03-27T17:33:15.643Z,59.11
2023-03-27T17:36:26.783Z,59.20
2023-03-27T17:39:37.441Z,59.52
2023-03-27T17:42:39.384Z,59.24
2023-03-27T17:45:43.502Z,59.97
2023-03-27T17:48:46.036Z,60.38
2023-03-27T17:51:51.778Z,61.85
2023-03-27T17:54:54.278Z,62.48
2023-03-27T17:58:08.886Z,62.67
2023-03-27T18:01:21.992Z,63.06
2023-03-27T18:04:24.634Z,63.52
2023-03-27T18:07:29.658Z,63.89
2023-03-27T18:10:33.594Z,64.37
2023-03-27T18:13:39.647Z,64.15
2023-03-27T18:16:41.580Z,64.92
2023-03-27T18:19:43.595Z,65.38
2023-03-27T18:22:45.906Z,65.68
2023-03-27T18:25:48.300Z,65.81
2023-03-27T18:28:50.191Z,65.64
2023-03-27T18:31:56.113Z,65.77
2023-03-27T18:34:58.082Z,65.60
2023-03-27T18:37:59.994Z,66.13
2023-03-27T18:41:02.835Z,66.71
2023-03-27T18:44:06.657Z,68.31
2023-03-27T18:47:08.732Z,67.22
2023-03-27T18:50:12.564Z,67.62
2023-03-27T18:53:14.420Z,67.62
2023-03-27T18:56:18.840Z,67.75
2023-03-27T18:59:20.898Z,67.63
2023-03-27T19:02:23.030Z,67.61
2023-03-27T19:05:24.978Z,67.52
2023-03-27T19:08:29.301Z,67.48
2023-03-27T19:11:31.373Z,67.61
2023-03-27T19:14:54.588Z,67.78
2023-03-27T19:18:16.556Z,68.06
2023-03-27T19:21:26.797Z,67.54
2023-03-27T19:24:40.567Z,67.33
2023-03-27T19:27:46.416Z,68.01
2023-03-27T19:30:48.443Z,68.51
2023-03-27T19:33:50.383Z,68.37
2023-03-27T19:36:55.178Z,68.51
2023-03-27T19:40:02.392Z,68.38
2023-03-27T19:43:04.438Z,68.64
2023-03-27T19:46:15.826Z,69.53
2023-03-27T19:49:18.582Z,69.89
2023-03-27T19:52:24.693Z,70.29
2023-03-27T19:55:26.554Z,70.38
2023-03-27T19:58:31.014Z,70.04
2023-03-27T20:01:33.192Z,69.53
2023-03-27T20:04:42.669Z,69.28
2023-03-27T20:07:45.869Z,69.13
2023-03-27T20:10:50.987Z,69.08
2023-03-27T20:13:57.225Z,69.63
2023-03-27T20:16:59.229Z,69.55
2023-03-27T20:20:01.208Z,69.77
2023-03-27T20:23:06.124Z,70.25
2023-03-27T20:26:08.660Z,70.43
2023-03-27T20:29:22.131Z,70.33
2023-03-27T20:32:24.197Z,70.06
2023-03-27T20:35:26.264Z,69.78
2023-03-27T20:38:36.566Z,69.67
2023-03-27T20:41:39.238Z,69.68
2023-03-27T20:44:58.160Z,69.41
2023-03-27T20:48:05.888Z,69.31
2023-03-27T20:51:15.009Z,69.41
2023-03-27T20:54:17.047Z,69.48
2023-03-27T20:57:22.244Z,69.27
2023-03-27T21:00:26.797Z,69.23
2023-03-27T21:03:32.062Z,69.01
2023-03-27T21:06:33.989Z,69.12
2023-03-27T21:09:39.091Z,69.26
2023-03-27T21:12:41.034Z,68.84
2023-03-27T21:15:43.942Z,68.89
2023-03-27T21:18:45.930Z,68.91
2023-03-27T21:21:50.787Z,68.91
2023-03-27T21:24:52.654Z,68.98
2023-03-27T21:27:54.645Z,69.01
2023-03-27T21:30:56.504Z,69.03
2023-03-27T21:34:00.911Z,68.95
2023-03-27T21:37:02.996Z,69.17
2023-03-27T21:40:11.297Z,69.19
2023-03-27T21:43:16.361Z,69.13
2023-03-27T21:46:23.643Z,69.11
2023-03-27T21:49:28.035Z,69.33
2023-03-27T21:52:29.890Z,69.28
2023-03-27T21:55:33.284Z,69.36
2023-03-27T21:58:36.156Z,69.44
2023-03-27T22:01:41.381Z,69.81
2023-03-27T22:04:43.299Z,69.27
2023-03-27T22:07:45.551Z,69.52
2023-03-27T22:10:47.448Z,69.50
2023-03-27T22:13:49.407Z,69.40
2023-03-27T22:16:56.714Z,69.54
2023-03-27T22:20:00.352Z,69.39
2023-03-27T22:23:02.236Z,69.46
2023-03-27T22:26:04.195Z,69.50
2023-03-27T22:29:16.664Z,69.31
2023-03-27T22:32:20.992Z,69.45
2023-03-27T22:35:22.989Z,69.46
2023-03-27T22:38:24.892Z,69.59
2023-03-27T22:41:27.196Z,69.67
2023-03-27T22:44:30.991Z,69.64
2023-03-27T22:47:35.963Z,69.47
2023-03-27T22:50:37.869Z,69.90
2023-03-27T22:53:40.609Z,70.12
2023-03-27T22:56:44.417Z,70.38
2023-03-27T22:59:54.258Z,70.26
2023-03-27T23:02:56.350Z,70.16
2023-03-27T23:06:02.571Z,70.32
2023-03-27T23:09:04.545Z,70.39
2023-03-27T23:12:16.752Z,70.50
2023-03-27T23:15:30.762Z,70.37
2023-03-27T23:18:32.995Z,70.59
2023-03-27T23:21:37.277Z,70.78
2023-03-27T23:24:39.105Z,70.88
2023-03-27T23:27:41.459Z,71.01
2023-03-27T23:30:45.694Z,71.28
2023-03-27T23:33:50.541Z,71.25
2023-03-27T23:36:57.038Z,71.29
2023-03-27T23:40:00.872Z,71.43
2023-03-27T23:43:05.546Z,71.34
2023-03-27T23:46:20.835Z,71.37
2023-03-27T23:49:24.905Z,71.52
2023-03-27T23:52:26.705Z,71.60
2023-03-27T23:55:33.558Z,71.91
2023-03-27T23:58:37.312Z,72.17
